createdAt,value
2018-07-10T00:00:07.889Z,57.20
2018-07-10T00:07:32.495Z,57.60
2018-07-10T00:12:28.092Z,57.50
2018-07-10T00:17:23.973Z,57.70
2018-07-10T00:22:19.603Z,58.10
2018-07-10T00:27:15.250Z,58.00
2018-07-10T00:37:07.630Z,58.10
2018-07-10T00:42:04.860Z,58.60
2018-07-10T00:47:00.455Z,58.20
2018-07-10T00:51:56.293Z,58.40
2018-07-10T00:56:52.118Z,58.10
2018-07-10T01:01:47.699Z,58.30
2018-07-10T01:06:43.899Z,58.30
2018-07-10T01:11:39.722Z,58.30
2018-07-10T01:16:36.502Z,58.60
2018-07-10T01:21:31.876Z,58.90
2018-07-10T01:26:28.747Z,58.80
2018-07-10T01:31:24.549Z,59.50
2018-07-10T01:36:20.698Z,59.40
2018-07-10T01:41:16.420Z,59.90
2018-07-10T01:46:12.477Z,59.50
2018-07-10T01:51:09.221Z,59.50
2018-07-10T01:56:06.232Z,59.30
2018-07-10T02:01:01.570Z,59.10
2018-07-10T02:05:58.709Z,59.60
2018-07-10T02:10:54.412Z,59.60
2018-07-10T02:20:52.345Z,59.00
2018-07-10T02:25:48.446Z,59.00
2018-07-10T02:30:44.235Z,59.30
2018-07-10T02:35:39.900Z,59.30
2018-07-10T02:40:36.169Z,59.80
2018-07-10T02:45:31.871Z,60.00
2018-07-10T02:50:28.043Z,60.30
2018-07-10T02:55:23.946Z,61.60
2018-07-10T03:00:19.578Z,61.00
2018-07-10T03:05:15.810Z,60.80
2018-07-10T03:15:11.549Z,59.80
2018-07-10T03:20:08.698Z,60.10
2018-07-10T03:25:05.373Z,60.20
2018-07-10T03:30:02.400Z,59.50
2018-07-10T03:34:58.532Z,59.30
2018-07-10T03:39:56.698Z,59.70
2018-07-10T03:44:53.039Z,59.80
2018-07-10T03:49:49.237Z,59.70
2018-07-10T03:54:45.231Z,59.40
2018-07-10T03:59:54.437Z,58.80
2018-07-10T04:04:50.770Z,59.10
2018-07-10T04:09:47.478Z,59.70
2018-07-10T04:14:45.323Z,59.70
2018-07-10T04:19:42.194Z,60.40
2018-07-10T04:24:40.766Z,60.50
2018-07-10T04:29:43.505Z,61.00
2018-07-10T04:34:40.040Z,61.60
2018-07-10T04:39:40.282Z,61.90
2018-07-10T04:44:36.818Z,62.00
2018-07-10T04:49:48.567Z,62.50
2018-07-10T04:55:06.641Z,62.10
2018-07-10T05:00:06.363Z,62.30
2018-07-10T05:05:02.143Z,62.90
2018-07-10T05:09:57.995Z,62.80
2018-07-10T05:14:54.369Z,62.40
2018-07-10T05:19:50.258Z,63.10
2018-07-10T05:24:46.944Z,64.60
2018-07-10T05:29:43.906Z,66.30
2018-07-10T05:39:41.786Z,70.30
2018-07-10T05:44:38.197Z,72.70
2018-07-10T05:49:38.761Z,74.70
2018-07-10T05:54:34.468Z,76.60
2018-07-10T05:59:29.947Z,76.00
2018-07-10T06:04:25.772Z,76.50
2018-07-10T06:09:30.847Z,76.40
2018-07-10T06:14:27.596Z,77.10
2018-07-10T06:19:23.447Z,76.90
2018-07-10T06:24:30.142Z,77.80
2018-07-10T06:29:26.511Z,78.40
2018-07-10T06:34:29.974Z,78.80
2018-07-10T06:39:25.884Z,79.20
2018-07-10T06:49:24.588Z,82.50
2018-07-10T06:54:20.915Z,83.40
2018-07-10T06:59:17.042Z,83.50
2018-07-10T07:04:13.616Z,83.80
2018-07-10T07:09:09.467Z,82.90
2018-07-10T07:14:05.643Z,82.90
2018-07-10T07:19:01.375Z,82.30
2018-07-10T07:23:57.088Z,83.50
2018-07-10T07:28:53.067Z,85.20
2018-07-10T07:33:48.653Z,84.80
2018-07-10T07:38:45.106Z,85.50
2018-07-10T07:43:43.620Z,85.30
2018-07-10T07:48:39.241Z,86.40
2018-07-10T07:53:35.855Z,85.60
2018-07-10T07:58:33.091Z,86.30
2018-07-10T08:03:28.786Z,85.40
2018-07-10T08:08:24.561Z,83.60
2018-07-10T08:13:20.206Z,81.50
2018-07-10T08:18:16.102Z,81.40
2018-07-10T08:23:11.858Z,81.90
2018-07-10T08:28:08.745Z,82.80
2018-07-10T08:33:05.970Z,84.20
2018-07-10T08:38:03.095Z,86.00
2018-07-10T08:42:59.931Z,85.60
2018-07-10T08:47:55.807Z,82.10
2018-07-10T08:52:51.494Z,81.30
2018-07-10T08:57:47.773Z,82.10
2018-07-10T09:02:44.670Z,82.40
2018-07-10T09:07:40.418Z,84.50
2018-07-10T09:12:38.136Z,83.10
2018-07-10T09:17:34.934Z,83.40
2018-07-10T09:22:30.658Z,81.90
2018-07-10T09:27:26.226Z,82.80
2018-07-10T09:32:28.361Z,81.60
2018-07-10T09:37:29.318Z,76.20
2018-07-10T09:42:25.970Z,78.90
2018-07-10T09:47:21.582Z,76.90
2018-07-10T09:52:17.929Z,78.10
2018-07-10T09:57:13.815Z,83.00
2018-07-10T10:07:10.525Z,82.60
2018-07-10T10:12:08.650Z,83.40
2018-07-10T10:22:00.153Z,81.80
2018-07-10T10:26:57.061Z,84.30
2018-07-10T10:31:53.044Z,83.10
2018-07-10T10:36:49.570Z,82.60
2018-07-10T10:41:45.538Z,80.10
2018-07-10T10:46:44.581Z,81.50
2018-07-10T10:51:40.663Z,82.80
2018-07-10T10:56:36.687Z,82.10
2018-07-10T11:01:32.690Z,88.10
2018-07-10T11:06:29.734Z,90.00
2018-07-10T11:16:21.376Z,89.10
2018-07-10T11:21:26.790Z,86.70
2018-07-10T11:26:33.817Z,88.50
2018-07-10T11:31:29.470Z,86.40
2018-07-10T11:36:25.512Z,82.10
2018-07-10T11:41:20.954Z,81.10
2018-07-10T11:46:17.480Z,80.10
2018-07-10T11:51:13.147Z,79.70
2018-07-10T11:56:10.222Z,80.40
2018-07-10T12:01:07.393Z,78.20
2018-07-10T12:06:06.128Z,77.40
2018-07-10T12:11:20.636Z,81.70
2018-07-10T12:16:17.695Z,77.50
2018-07-10T12:21:19.268Z,75.80
2018-07-10T12:26:16.526Z,76.70
2018-07-10T12:31:12.144Z,77.40
2018-07-10T12:36:07.890Z,72.30
2018-07-10T12:41:04.934Z,73.70
2018-07-10T12:46:02.498Z,73.20
2018-07-10T12:55:53.551Z,70.30
2018-07-10T13:00:49.803Z,72.80
2018-07-10T13:05:53.357Z,72.00
2018-07-10T13:10:49.452Z,68.40
2018-07-10T13:15:45.529Z,65.00
2018-07-10T13:20:41.233Z,67.60
2018-07-10T13:25:36.913Z,68.70
2018-07-10T13:30:32.589Z,70.80
2018-07-10T13:35:28.593Z,72.10
2018-07-10T13:40:24.408Z,73.80
2018-07-10T13:45:20.622Z,73.20
2018-07-10T13:50:19.652Z,76.40
2018-07-10T13:55:15.219Z,76.20
2018-07-10T14:00:10.858Z,74.90
2018-07-10T14:05:08.393Z,74.90
2018-07-10T14:10:05.717Z,73.30
2018-07-10T14:15:01.524Z,74.70
2018-07-10T14:19:59.006Z,76.30
2018-07-10T14:29:51.650Z,78.10
2018-07-10T14:39:44.511Z,78.90
2018-07-10T14:44:44.608Z,77.30
2018-07-10T14:49:41.046Z,76.30
2018-07-10T14:54:36.969Z,76.80
2018-07-10T14:59:32.632Z,78.40
2018-07-10T15:04:28.798Z,77.10
2018-07-10T15:09:24.462Z,76.40
2018-07-10T15:14:19.931Z,74.10
2018-07-10T15:19:17.674Z,73.60
2018-07-10T15:24:16.214Z,73.80
2018-07-10T15:29:17.170Z,70.30
2018-07-10T15:34:12.777Z,72.70
2018-07-10T15:39:08.713Z,71.10
2018-07-10T15:44:04.997Z,72.00
2018-07-10T15:49:00.659Z,75.80
2018-07-10T15:53:56.223Z,75.30
2018-07-10T15:58:52.867Z,75.50
2018-07-10T16:03:48.615Z,77.10
2018-07-10T16:08:45.004Z,77.20
2018-07-10T16:13:44.702Z,78.90
2018-07-10T16:23:37.828Z,76.80
2018-07-10T16:28:35.194Z,78.10
2018-07-10T16:33:34.055Z,77.20
2018-07-10T16:38:29.649Z,79.00
2018-07-10T16:43:29.942Z,79.10
2018-07-10T16:49:03.730Z,79.30
2018-07-10T16:54:02.399Z,81.40
2018-07-10T16:58:59.431Z,81.60
2018-07-10T17:03:55.366Z,81.00
2018-07-10T17:08:51.445Z,81.30
2018-07-10T17:13:47.291Z,80.40
2018-07-10T17:18:44.550Z,81.40
2018-07-10T17:23:40.247Z,82.40
2018-07-10T17:33:33.082Z,82.70
2018-07-10T17:38:29.594Z,80.80
2018-07-10T17:43:25.794Z,80.80
2018-07-10T17:48:23.053Z,80.80
2018-07-10T17:53:19.410Z,80.80
2018-07-10T17:58:18.874Z,81.10
2018-07-10T18:03:14.423Z,80.70
2018-07-10T18:08:11.877Z,79.80
2018-07-10T18:13:07.622Z,80.90
2018-07-10T18:18:04.442Z,80.20
2018-07-10T18:23:00.401Z,78.30
2018-07-10T18:27:56.369Z,78.20
2018-07-10T18:32:52.641Z,78.70
2018-07-10T18:37:49.026Z,79.00
2018-07-10T18:42:45.108Z,80.30
2018-07-10T18:47:40.762Z,83.50
2018-07-10T18:52:36.818Z,84.90
2018-07-10T18:58:11.646Z,85.90
2018-07-10T19:08:05.069Z,88.10
2018-07-10T19:13:01.842Z,89.70
2018-07-10T19:17:58.614Z,90.30
2018-07-10T19:23:00.504Z,90.30
2018-07-10T19:27:59.869Z,90.80
2018-07-10T19:32:56.259Z,91.00
2018-07-10T19:47:42.581Z,91.90
2018-07-10T19:52:38.656Z,92.00
2018-07-10T19:57:46.787Z,92.20
2018-07-10T20:02:42.825Z,92.10
2018-07-10T20:13:15.024Z,92.90
2018-07-10T20:18:43.665Z,92.90
2018-07-10T20:23:45.487Z,93.10
2018-07-10T20:29:02.317Z,93.30
2018-07-10T20:34:12.488Z,93.40
2018-07-10T20:39:08.294Z,93.30
2018-07-10T20:44:06.768Z,93.60
2018-07-10T20:49:04.465Z,93.70
2018-07-10T20:55:10.371Z,93.90
2018-07-10T21:00:13.614Z,93.90
2018-07-10T21:05:12.740Z,94.00
2018-07-10T21:10:11.902Z,93.70
2018-07-10T21:15:10.383Z,93.80
2018-07-10T21:20:13.775Z,94.10
2018-07-10T21:25:20.583Z,94.10
2018-07-10T21:30:26.713Z,94.30
2018-07-10T21:35:23.698Z,94.30
2018-07-10T21:40:31.708Z,93.90
2018-07-10T21:47:37.437Z,93.80
2018-07-10T21:52:33.630Z,93.80
2018-07-10T21:57:34.011Z,94.00
2018-07-10T22:02:30.444Z,94.30
2018-07-10T22:07:29.053Z,94.40
2018-07-10T22:12:25.865Z,94.70
2018-07-10T22:22:21.866Z,94.20
2018-07-10T22:27:17.608Z,94.20
2018-07-10T22:37:27.536Z,94.30
2018-07-10T22:42:23.090Z,93.80
2018-07-10T22:47:20.900Z,93.70
2018-07-10T22:52:16.663Z,93.40
2018-07-10T22:57:13.529Z,93.60
2018-07-10T23:02:09.822Z,93.70
2018-07-10T23:07:07.120Z,93.60
2018-07-10T23:12:03.317Z,93.60
2018-07-10T23:21:53.689Z,93.60
2018-07-10T23:26:50.587Z,93.60
2018-07-10T23:31:46.630Z,93.70
2018-07-10T23:36:42.345Z,93.70
2018-07-10T23:41:52.082Z,93.90
2018-07-10T23:46:55.829Z,93.90
2018-07-10T23:56:51.380Z,93.80
